Time;durP1;ratioP1;P1;durP2;ratioP2;P2;SDS_P1;SDS_P2;PMS_P1;PMS_P2;Temp;Humidity;BMP_temperature;BMP_pressure;BME280_temperature;BME280_humidity;BME280_pressure;Samples;Min_cycle;Max_cycle;Signal;HPM_P1;HPM_P2
2022/10/21 00:02:17;;;;;;;27.50;13.10;;;;;;;4.91;75.16;101121.82;106860;1238;97612;-74
2022/10/21 00:04:43;;;;;;;29.00;13.60;;;;;;;4.87;75.28;101109.48;106679;1235;139495;-73
2022/10/21 00:07:08;;;;;;;28.20;12.50;;;;;;;4.84;75.24;101102.79;106822;1246;97684;-74
2022/10/21 00:09:34;;;;;;;25.20;12.00;;;;;;;4.82;75.28;101098.92;106676;1238;139673;-72
2022/10/21 00:11:59;;;;;;;34.60;13.50;;;;;;;4.79;75.33;101096.12;106827;1245;98640;-72
2022/10/21 00:14:24;;;;;;;26.10;13.30;;;;;;;4.76;75.14;101094.39;106819;1253;97677;-73
2022/10/21 00:16:49;;;;;;;30.50;12.50;;;;;;;4.73;75.36;101096.91;106716;1250;138408;-73
2022/10/21 00:19:15;;;;;;;25.10;12.40;;;;;;;4.70;75.45;101088.27;106880;1248;97585;-73
2022/10/21 00:21:41;;;;;;;23.70;12.50;;;;;;;4.67;75.35;101080.34;106785;1234;138918;-73
2022/10/21 00:24:07;;;;;;;29.00;12.10;;;;;;;4.63;75.52;101078.27;106957;1242;97700;-71
2022/10/21 00:26:32;;;;;;;29.10;13.50;;;;;;;4.59;75.42;101076.19;106910;1242;108263;-71
2022/10/21 00:28:57;;;;;;;27.10;12.60;;;;;;;4.54;75.39;101070.05;106753;1243;138917;-73
2022/10/21 00:31:23;;;;;;;27.60;11.80;;;;;;;4.53;75.54;101076.79;107020;1237;98116;-73
2022/10/21 00:33:49;;;;;;;31.30;12.80;;;;;;;4.50;75.62;101073.11;106784;1233;138539;-73
2022/10/21 00:36:15;;;;;;;29.30;12.00;;;;;;;4.48;75.52;101066.41;106746;1248;97799;-73
2022/10/21 00:38:47;;;;;;;30.60;13.10;;;;;;;4.45;75.67;101067.51;106937;1237;97658;-73
2022/10/21 00:41:14;;;;;;;33.30;13.70;;;;;;;4.43;75.79;101063.27;106720;1243;140228;-73
2022/10/21 00:43:53;;;;;;;32.40;13.30;;;;;;;4.42;75.81;101056.58;106930;1253;97576;-72
2022/10/21 00:46:31;;;;;;;28.90;13.80;;;;;;;4.39;75.63;101048.47;106683;1250;138970;-72
2022/10/21 00:48:59;;;;;;;27.70;13.10;;;;;;;4.36;75.85;101047.63;106807;1233;97686;-72
2022/10/21 00:51:24;;;;;;;32.50;15.60;;;;;;;4.35;75.93;101049.58;106655;1248;139819;-71
2022/10/21 00:53:50;;;;;;;32.30;14.60;;;;;;;4.34;76.02;101046.94;106791;1237;97710;-71
2022/10/21 00:56:23;;;;;;;31.10;15.00;;;;;;;4.33;75.77;101043.59;106851;1244;97623;-73
2022/10/21 00:58:50;;;;;;;29.00;13.70;;;;;;;4.30;76.13;101042.91;106798;1241;138556;-72
2022/10/21 01:01:15;;;;;;;33.50;14.80;;;;;;;4.30;76.14;101045.56;106878;1232;97654;-72
2022/10/21 01:03:40;;;;;;;30.00;14.20;;;;;;;4.30;76.05;101042.73;106669;1235;139753;-71
2022/10/21 01:06:11;;;;;;;32.80;14.60;;;;;;;4.28;76.06;101047.89;106814;1229;97668;-72
2022/10/21 01:08:37;;;;;;;30.60;14.40;;;;;;;4.27;76.20;101037.64;106844;1248;97662;-72
2022/10/21 01:11:04;;;;;;;29.00;14.80;;;;;;;4.26;76.13;101027.40;106704;1235;139113;-73
2022/10/21 01:13:49;;;;;;;29.90;14.30;;;;;;;4.25;76.24;101029.35;106764;1236;98760;-73
2022/10/21 01:16:39;;;;;;;31.70;15.80;;;;;;;4.25;76.41;101034.83;106673;1245;138901;-73
2022/10/21 01:19:36;;;;;;;28.10;14.10;;;;;;;4.24;76.27;101027.59;106840;1241;106210;-73
2022/10/21 01:22:32;;;;;;;32.00;13.60;;;;;;;4.24;76.43;101023.88;106668;1234;139242;-73
2022/10/21 01:25:23;;;;;;;32.50;13.90;;;;;;;4.23;76.54;101030.08;106815;1237;97608;-71
2022/10/21 01:28:12;;;;;;;25.50;13.40;;;;;;;4.23;76.53;101025.83;106716;1237;138780;-70
2022/10/21 01:30:42;;;;;;;30.10;14.20;;;;;;;4.23;76.57;101029.89;106800;1240;100081;-72
2022/10/21 01:33:14;;;;;;;30.40;15.10;;;;;;;4.24;76.62;101025.45;106821;1238;107998;-73
2022/10/21 01:36:06;;;;;;;30.60;15.30;;;;;;;4.25;76.54;101019.09;106833;1241;97836;-73
2022/10/21 01:38:46;;;;;;;33.40;15.90;;;;;;;4.25;76.62;101012.73;106778;1243;97603;-73
2022/10/21 01:41:20;;;;;;;28.80;13.60;;;;;;;4.24;76.57;101013.79;106750;1235;139096;-73
2022/10/21 01:44:09;;;;;;;33.70;15.00;;;;;;;4.23;76.54;101000.89;106804;1236;99924;-72
2022/10/21 01:46:48;;;;;;;40.50;15.60;;;;;;;4.22;76.64;100988.35;106728;1238;140539;-72
2022/10/21 01:49:26;;;;;;;37.30;16.50;;;;;;;4.21;76.78;100981.27;106743;1234;97714;-73
2022/10/21 01:51:53;;;;;;;35.80;16.70;;;;;;;4.21;76.93;100982.87;106758;1254;138740;-72
2022/10/21 01:54:24;;;;;;;29.50;14.10;;;;;;;4.22;76.81;100973.30;106874;1238;97696;-72
2022/10/21 01:56:50;;;;;;;;;;;;;;;4.23;76.93;100973.11;106890;1242;99400;-73
2022/10/21 01:59:18;;;;;;;30.40;14.50;;;;;;;4.23;76.85;100980.36;106652;1235;125948;-72
2022/10/21 02:01:46;;;;;;;31.50;15.30;;;;;;;4.26;77.08;100979.27;106819;1247;97585;-72
2022/10/21 02:04:14;;;;;;;34.00;16.50;;;;;;;4.27;76.85;100975.73;106644;1235;141325;-71
2022/10/21 02:06:40;;;;;;;37.60;16.90;;;;;;;4.27;77.11;100970.25;106822;1249;111745;-72
2022/10/21 02:09:05;;;;;;;27.60;15.10;;;;;;;4.29;77.11;100974.47;106858;1249;97607;-72
2022/10/21 02:11:34;;;;;;;32.90;14.80;;;;;;;4.31;77.22;100978.33;106776;1246;138388;-72
2022/10/21 02:14:13;;;;;;;31.00;14.70;;;;;;;4.33;77.30;100982.90;106826;1238;96209;-72
2022/10/21 02:16:40;;;;;;;37.30;16.20;;;;;;;4.33;77.25;100983.60;106735;1242;138528;-72
2022/10/21 02:19:13;;;;;;;29.50;15.40;;;;;;;4.34;77.21;100989.80;106839;1241;97719;-72
2022/10/21 02:21:39;;;;;;;32.90;15.50;;;;;;;4.34;77.24;100992.62;106659;1235;140451;-71
2022/10/21 02:24:15;;;;;;;28.50;15.00;;;;;;;4.35;77.26;100994.38;106733;1236;97688;-72
2022/10/21 02:26:40;;;;;;;33.90;16.70;;;;;;;4.36;77.40;100991.36;106807;1253;97674;-72
2022/10/21 02:29:06;;;;;;;32.20;16.60;;;;;;;4.37;77.28;100989.05;106657;1238;138420;-72
2022/10/21 02:31:31;;;;;;;32.50;15.90;;;;;;;4.37;77.38;100987.09;106809;1235;97548;-72
2022/10/21 02:34:18;;;;;;;42.20;16.10;;;;;;;4.38;77.35;100981.24;106636;1241;140478;-72
2022/10/21 02:37:11;;;;;;;36.20;18.30;;;;;;;4.39;77.48;100984.08;106764;1243;97657;-72
2022/10/21 02:39:46;;;;;;;34.00;17.40;;;;;;;4.37;77.42;100977.73;106687;1246;138797;-72
2022/10/21 02:42:17;;;;;;;40.40;18.80;;;;;;;4.37;77.45;100969.94;106765;1243;100088;-72
2022/10/21 02:44:43;;;;;;;34.10;16.30;;;;;;;4.36;77.53;100963.40;106807;1237;107915;-71
2022/10/21 02:47:08;;;;;;;36.40;17.70;;;;;;;4.36;77.51;100956.15;106685;1246;140948;-71
2022/10/21 02:49:33;;;;;;;37.20;17.60;;;;;;;4.37;77.52;100958.44;106837;1243;98513;-72
2022/10/21 02:51:58;;;;;;;35.70;17.30;;;;;;;4.37;77.64;100954.19;106722;1250;140164;-72
2022/10/21 02:54:23;;;;;;;36.60;17.20;;;;;;;4.39;77.74;100950.27;106834;1235;99042;-72
2022/10/21 02:56:49;;;;;;;32.90;16.40;;;;;;;4.40;77.49;100947.95;106748;1234;97673;-72
2022/10/21 02:59:14;;;;;;;33.90;16.30;;;;;;;4.40;77.59;100949.90;106715;1234;138459;-72
2022/10/21 03:01:39;;;;;;;31.80;16.80;;;;;;;4.40;77.72;100949.73;106813;1251;97620;-71
2022/10/21 03:04:04;;;;;;;34.60;16.10;;;;;;;4.42;77.81;100947.05;106665;1243;140115;-72
2022/10/21 03:06:30;;;;;;;32.70;17.50;;;;;;;4.44;77.84;100949.14;106867;1244;97717;-72
2022/10/21 03:08:55;;;;;;;33.70;16.20;;;;;;;4.44;77.85;100955.33;106786;1241;97617;-72
2022/10/21 03:11:20;;;;;;;40.70;17.80;;;;;;;4.46;77.93;100954.42;106735;1249;139145;-72
2022/10/21 03:13:45;;;;;;;40.70;19.40;;;;;;;4.49;77.89;100948.72;106873;1235;97570;-72
2022/10/21 03:16:10;;;;;;;37.10;18.60;;;;;;;4.51;77.93;100940.02;106717;1247;138710;-71
2022/10/21 03:18:36;;;;;;;42.20;18.80;;;;;;;4.51;77.79;100938.26;106731;1243;97632;-72
2022/10/21 03:21:01;;;;;;;41.60;19.90;;;;;;;4.51;77.91;100939.67;106781;1241;97830;-73
2022/10/21 03:23:26;;;;;;;43.10;19.60;;;;;;;4.51;77.81;100940.73;106737;1236;138557;-72
2022/10/21 03:25:51;;;;;;;42.40;21.00;;;;;;;4.52;78.00;100942.85;106782;1241;97616;-72
2022/10/21 03:28:16;;;;;;;42.50;20.70;;;;;;;4.52;78.11;100943.71;106739;1238;139095;-72
2022/10/21 03:30:42;;;;;;;46.00;21.00;;;;;;;4.53;77.95;100935.74;106804;1234;98330;-72
2022/10/21 03:33:07;;;;;;;40.40;20.00;;;;;;;4.55;78.01;100925.63;106745;1234;97707;-72
2022/10/21 03:35:32;;;;;;;40.30;20.70;;;;;;;4.56;78.07;100928.45;106690;1243;140492;-72
2022/10/21 03:37:58;;;;;;;40.80;20.10;;;;;;;4.55;77.88;100925.80;106717;1235;97780;-72
2022/10/21 03:40:28;;;;;;;36.80;18.70;;;;;;;4.54;78.16;100922.63;106822;1250;139221;-72
2022/10/21 03:42:54;;;;;;;43.00;20.80;;;;;;;4.54;78.02;100918.22;106797;1241;100007;-71
2022/10/21 03:45:20;;;;;;;45.70;20.50;;;;;;;4.52;78.00;100915.41;106647;1243;138833;-70
2022/10/21 03:47:46;;;;;;;41.40;19.30;;;;;;;4.51;78.16;100908.17;106850;1243;97701;-72
2022/10/21 03:50:11;;;;;;;40.60;18.50;;;;;;;4.49;78.11;100911.20;106806;1251;111496;-72
2022/10/21 03:52:36;;;;;;;41.10;19.90;;;;;;;4.49;78.27;100909.80;106741;1243;138909;-71
2022/10/21 03:55:01;;;;;;;45.50;19.70;;;;;;;4.47;78.11;100902.92;106849;1234;97596;-72
2022/10/21 03:57:26;;;;;;;37.90;19.40;;;;;;;4.46;78.26;100900.10;106672;1243;139269;-72
2022/10/21 03:59:51;;;;;;;40.90;19.10;;;;;;;4.46;78.47;100895.33;106885;1251;97698;-72
2022/10/21 04:02:17;;;;;;;35.30;18.10;;;;;;;4.47;78.34;100898.67;106652;1235;97734;-71
2022/10/21 04:04:42;;;;;;;38.50;18.90;;;;;;;4.47;78.27;100895.66;106763;1241;139195;-71
2022/10/21 04:07:07;;;;;;;39.40;18.20;;;;;;;4.48;78.17;100891.59;106801;1251;97578;-71
2022/10/21 04:09:32;;;;;;;39.70;19.00;;;;;;;4.48;78.28;100884.86;106711;1241;138699;-71
2022/10/21 04:11:57;;;;;;;41.20;17.50;;;;;;;4.49;78.34;100881.84;106811;1238;97720;-72
2022/10/21 04:14:22;;;;;;;38.80;16.40;;;;;;;4.49;78.42;100875.99;106793;1242;99039;-73
2022/10/21 04:16:48;;;;;;;38.40;18.20;;;;;;;4.51;78.42;100871.54;106792;1243;139575;-72
2022/10/21 04:19:18;;;;;;;35.30;17.90;;;;;;;4.54;78.43;100861.95;106820;1241;97732;-73
2022/10/21 04:21:43;;;;;;;36.30;17.60;;;;;;;4.55;78.40;100858.04;106738;1244;139562;-71
2022/10/21 04:24:09;;;;;;;39.90;19.30;;;;;;;4.57;78.48;100853.76;106832;1254;97636;-73
2022/10/21 04:26:34;;;;;;;45.00;18.70;;;;;;;4.57;78.42;100853.04;106859;1244;97593;-72
2022/10/21 04:28:59;;;;;;;41.10;18.30;;;;;;;4.59;78.46;100845.05;106652;1250;140535;-72
2022/10/21 04:31:24;;;;;;;41.00;18.80;;;;;;;4.61;78.75;100840.59;106859;1242;98617;-71
2022/10/21 04:33:50;;;;;;;39.20;19.10;;;;;;;4.65;78.56;100840.52;106734;1253;139361;-72
2022/10/21 04:36:16;;;;;;;39.00;19.50;;;;;;;4.69;78.54;100834.98;106701;1241;97701;-72
2022/10/21 04:38:42;;;;;;;38.70;18.90;;;;;;;4.71;78.74;100824.50;106848;1248;98995;-72
2022/10/21 04:41:07;;;;;;;32.80;17.50;;;;;;;4.71;78.63;100815.48;106715;1234;140737;-72
2022/10/21 04:43:32;;;;;;;37.80;18.70;;;;;;;4.72;78.57;100814.74;106805;1244;97704;-72
2022/10/21 04:45:57;;;;;;;39.40;20.10;;;;;;;4.75;78.77;100811.52;106721;1239;140232;-72
2022/10/21 04:48:23;;;;;;;40.90;19.20;;;;;;;4.76;78.76;100811.85;106771;1239;97738;-71
2022/10/21 04:50:52;;;;;;;39.20;19.30;;;;;;;4.78;78.66;100816.59;106890;1251;97706;-72
2022/10/21 04:53:18;;;;;;;39.50;18.10;;;;;;;4.80;78.59;100821.17;106708;1252;139744;-72
2022/10/21 04:55:43;;;;;;;40.70;19.70;;;;;;;4.81;78.70;100829.82;106795;1234;97600;-73
2022/10/21 04:58:08;;;;;;;43.10;20.30;;;;;;;4.83;78.78;100834.58;106783;1244;140552;-71
2022/10/21 05:00:33;;;;;;;41.60;20.30;;;;;;;4.84;78.83;100837.91;106715;1241;98833;-73
2022/10/21 05:02:59;;;;;;;38.30;19.20;;;;;;;4.84;78.75;100837.91;106827;1233;97790;-73
2022/10/21 05:05:24;;;;;;;37.00;19.20;;;;;;;4.85;78.74;100835.23;106619;1234;138371;-73
2022/10/21 05:07:49;;;;;;;48.20;21.10;;;;;;;4.86;78.70;100829.56;106781;1240;97616;-72
2022/10/21 05:10:14;;;;;;;41.70;19.70;;;;;;;4.86;78.71;100814.86;106706;1243;139455;-73
2022/10/21 05:12:40;;;;;;;39.40;18.90;;;;;;;4.85;78.77;100803.02;106786;1242;97578;-73
2022/10/21 05:15:05;;;;;;;41.00;18.70;;;;;;;4.85;78.74;100792.94;106847;1253;97724;-73
2022/10/21 05:17:31;;;;;;;43.50;21.20;;;;;;;4.87;78.83;100783.52;106814;1233;138487;-73
2022/10/21 05:19:56;;;;;;;41.50;20.00;;;;;;;4.88;78.91;100776.77;106928;1242;97742;-72
2022/10/21 05:22:21;;;;;;;44.80;20.40;;;;;;;4.92;78.93;100774.75;106630;1241;138534;-73
2022/10/21 05:24:46;;;;;;;51.60;20.30;;;;;;;4.95;79.03;100773.63;106685;1233;97710;-72
2022/10/21 05:27:11;;;;;;;45.10;20.10;;;;;;;4.97;79.02;100762.80;106916;1241;97581;-72
2022/10/21 05:29:37;;;;;;;44.70;21.00;;;;;;;4.99;79.00;100755.48;106498;1237;140801;-71
2022/10/21 05:32:02;;;;;;;41.10;18.40;;;;;;;5.02;79.03;100752.42;106739;1236;97674;-70
2022/10/21 05:34:27;;;;;;;45.70;19.60;;;;;;;5.05;79.05;100742.11;106603;1238;138473;-72
2022/10/21 05:36:52;;;;;;;39.20;17.60;;;;;;;5.09;79.22;100729.63;106874;1234;97747;-73
2022/10/21 05:39:17;;;;;;;37.10;18.80;;;;;;;5.10;79.14;100724.28;106579;1227;140112;-71
2022/10/21 05:41:42;;;;;;;37.20;19.70;;;;;;;5.13;79.23;100718.73;106656;1235;97665;-72
2022/10/21 05:44:08;;;;;;;44.80;19.50;;;;;;;5.16;79.02;100712.83;106706;1243;99385;-71
2022/10/21 05:46:33;;;;;;;42.10;19.50;;;;;;;5.19;79.19;100709.05;106601;1243;139666;-70
2022/10/21 05:48:58;;;;;;;41.60;19.30;;;;;;;5.21;79.16;100711.28;106797;1243;97704;-74
2022/10/21 05:51:25;;;;;;;39.20;19.00;;;;;;;5.23;79.24;100712.83;106690;1246;140189;-71
2022/10/21 05:53:54;;;;;;;38.10;19.30;;;;;;;5.24;79.12;100699.86;106727;1244;97708;-74
2022/10/21 05:56:19;;;;;;;50.20;21.20;;;;;;;5.25;79.12;100696.66;106714;1245;108754;-71
2022/10/21 05:58:45;;;;;;;43.00;19.40;;;;;;;5.29;79.26;100691.44;106611;1238;138707;-71
2022/10/21 06:01:10;;;;;;;43.80;20.90;;;;;;;5.32;79.36;100683.23;106751;1238;97724;-72
2022/10/21 06:03:35;;;;;;;47.10;19.60;;;;;;;5.35;79.28;100675.91;106598;1242;139342;-71
2022/10/21 06:06:04;;;;;;;37.10;19.10;;;;;;;5.35;79.46;100667.39;106774;1227;97784;-71
2022/10/21 06:08:32;;;;;;;39.70;19.50;;;;;;;5.38;79.43;100664.85;106760;1251;99551;-71
2022/10/21 06:11:03;;;;;;;37.70;19.20;;;;;;;5.40;79.42;100660.56;106610;1238;139476;-72
2022/10/21 06:13:29;;;;;;;44.30;19.90;;;;;;;5.43;79.58;100662.44;106670;1234;100010;-71
2022/10/21 06:15:54;;;;;;;36.80;17.80;;;;;;;5.45;79.38;100655.48;106564;1244;138985;-72
2022/10/21 06:18:19;;;;;;;37.00;18.40;;;;;;;5.46;79.37;100655.64;106821;1242;95110;-72
2022/10/21 06:20:45;;;;;;;42.00;19.80;;;;;;;5.47;79.34;100667.12;106794;1244;97788;-72
2022/10/21 06:23:11;;;;;;;43.20;20.90;;;;;;;5.52;79.48;100672.14;106567;1230;140453;-73
2022/10/21 06:25:37;;;;;;;46.30;20.00;;;;;;;5.57;79.60;100672.24;106690;1237;99034;-72
2022/10/21 06:28:02;;;;;;;42.20;20.80;;;;;;;5.61;79.53;100678.88;106694;1246;139559;-72
2022/10/21 06:30:28;;;;;;;44.30;19.60;;;;;;;5.64;79.60;100672.08;106743;1227;97708;-73
2022/10/21 06:32:53;;;;;;;41.90;21.30;;;;;;;5.69;79.60;100669.13;106748;1228;97647;-71
2022/10/21 06:35:18;;;;;;;40.50;21.20;;;;;;;5.72;79.52;100649.20;106632;1229;138375;-71
2022/10/21 06:37:44;;;;;;;39.10;20.30;;;;;;;5.74;79.55;100638.86;106816;1236;97701;-71
2022/10/21 06:40:10;;;;;;;43.00;21.50;;;;;;;5.76;79.64;100635.63;106654;1234;138571;-72
2022/10/21 06:42:35;;;;;;;41.60;21.00;;;;;;;5.78;79.67;100640.17;106720;1244;97552;-72
2022/10/21 06:45:00;;;;;;;50.80;22.50;;;;;;;5.81;79.75;100635.33;106785;1233;97577;-73
2022/10/21 06:47:25;;;;;;;39.70;21.40;;;;;;;5.85;79.73;100636.83;106444;1239;139426;-72
2022/10/21 06:49:50;;;;;;;45.60;20.40;;;;;;;5.87;79.79;100644.92;106799;1236;97745;-72
2022/10/21 06:52:15;;;;;;;42.80;22.20;;;;;;;5.91;79.80;100650.02;106594;1233;138612;-74
2022/10/21 06:54:41;;;;;;;41.60;21.30;;;;;;;5.96;79.77;100658.77;106891;1247;97634;-73
2022/10/21 06:57:06;;;;;;;39.30;20.60;;;;;;;6.00;79.74;100674.26;106869;1236;97707;-73
2022/10/21 06:59:31;;;;;;;39.40;19.20;;;;;;;6.05;79.91;100690.81;106645;1244;138350;-73
2022/10/21 07:01:56;;;;;;;41.00;19.80;;;;;;;6.09;79.74;100708.10;106588;1234;97467;-72
2022/10/21 07:04:22;;;;;;;51.10;20.30;;;;;;;6.11;79.77;100721.17;106514;1227;140359;-72
2022/10/21 07:06:48;;;;;;;48.90;21.70;;;;;;;6.14;79.87;100718.27;106738;1238;97566;-72
2022/10/21 07:09:14;;;;;;;46.30;20.80;;;;;;;6.17;79.80;100721.75;106731;1244;97700;-72
2022/10/21 07:11:39;;;;;;;51.10;22.20;;;;;;;6.18;79.82;100735.39;106548;1236;139664;-72
2022/10/21 07:14:04;;;;;;;49.30;22.60;;;;;;;6.22;79.75;100733.00;106823;1235;98805;-72
2022/10/21 07:16:34;;;;;;;50.40;24.80;;;;;;;6.24;79.89;100728.86;106552;1229;139499;-71
2022/10/21 07:18:59;;;;;;;49.40;23.90;;;;;;;6.25;79.96;100730.43;106695;1237;97708;-72
2022/10/21 07:21:27;;;;;;;51.30;23.10;;;;;;;6.27;79.92;100719.04;106574;1230;138761;-71
2022/10/21 07:23:53;;;;;;;42.80;21.20;;;;;;;6.30;79.86;100709.01;106748;1227;97692;-72
2022/10/21 07:26:20;;;;;;;46.30;21.20;;;;;;;6.33;79.96;100707.34;106709;1227;96506;-72
2022/10/21 07:28:47;;;;;;;44.30;22.40;;;;;;;6.37;79.93;100709.19;106804;1251;138429;-72
2022/10/21 07:31:13;;;;;;;46.00;22.60;;;;;;;6.40;79.92;100719.40;106726;1237;97723;-75
2022/10/21 07:33:39;;;;;;;50.20;23.00;;;;;;;6.42;79.92;100717.58;106648;1247;139146;-73
2022/10/21 07:36:12;;;;;;;46.10;22.80;;;;;;;6.47;79.91;100717.27;106779;1233;97699;-72
2022/10/21 07:38:38;;;;;;;47.10;21.60;;;;;;;6.52;80.01;100718.74;106686;1237;108824;-73
2022/10/21 07:41:04;;;;;;;41.50;20.40;;;;;;;6.58;80.08;100713.80;106688;1237;138717;-73
2022/10/21 07:43:31;;;;;;;37.00;20.30;;;;;;;6.64;80.12;100707.80;106778;1244;97684;-73
2022/10/21 07:45:57;;;;;;;50.50;20.40;;;;;;;6.69;80.13;100704.11;106770;1245;139389;-72
2022/10/21 07:48:24;;;;;;;41.30;19.20;;;;;;;6.73;80.08;100711.98;106718;1237;107662;-71
2022/10/21 07:50:50;;;;;;;37.20;17.60;;;;;;;6.78;80.13;100711.66;106871;1246;97662;-72
2022/10/21 07:53:16;;;;;;;40.50;18.30;;;;;;;6.84;80.13;100702.80;106696;1231;140261;-72
2022/10/21 07:55:42;;;;;;;32.50;16.30;;;;;;;6.90;80.13;100695.37;106752;1228;97652;-72
2022/10/21 07:58:07;;;;;;;30.70;16.90;;;;;;;6.96;80.18;100690.41;106575;1237;139198;-72
2022/10/21 08:00:34;;;;;;;40.20;16.50;;;;;;;7.02;80.24;100684.01;106694;1235;96239;-72
2022/10/21 08:02:59;;;;;;;43.90;16.70;;;;;;;7.11;80.29;100682.70;106683;1228;111632;-71
2022/10/21 08:05:24;;;;;;;29.40;14.80;;;;;;;7.17;80.18;100684.30;106597;1237;140162;-72
2022/10/21 08:07:50;;;;;;;33.40;14.60;;;;;;;7.23;80.22;100682.54;106644;1235;97711;-71
2022/10/21 08:10:15;;;;;;;28.10;14.70;;;;;;;7.29;80.22;100677.56;106592;1236;141367;-72
2022/10/21 08:12:40;;;;;;;34.90;16.10;;;;;;;7.33;80.15;100676.02;106751;1237;97818;-71
2022/10/21 08:15:06;;;;;;;32.60;15.60;;;;;;;7.37;80.24;100664.17;106599;1229;97625;-72
2022/10/21 08:17:31;;;;;;;33.60;14.80;;;;;;;7.43;80.24;100663.44;108161;1235;138617;-72
2022/10/21 08:19:57;;;;;;;29.90;13.30;;;;;;;7.49;80.23;100668.23;106828;1233;98146;-72
2022/10/21 08:22:22;;;;;;;24.70;13.70;;;;;;;7.58;80.26;100676.14;106595;1238;138799;-71
2022/10/21 08:24:47;;;;;;;28.70;13.80;;;;;;;7.66;80.30;100673.40;106752;1235;98069;-73
2022/10/21 08:27:12;;;;;;;28.10;14.00;;;;;;;7.70;80.15;100672.05;106686;1227;96856;-72
2022/10/21 08:29:38;;;;;;;27.20;14.30;;;;;;;7.74;80.17;100667.46;106673;1236;140062;-72
2022/10/21 08:32:03;;;;;;;28.90;14.90;;;;;;;7.84;80.34;100676.02;106755;1241;97619;-71
2022/10/21 08:34:29;;;;;;;24.80;14.10;;;;;;;7.94;80.32;100675.86;106525;1235;139699;-72
2022/10/21 08:36:54;;;;;;;38.60;14.90;;;;;;;8.01;80.33;100668.16;106793;1238;97885;-72
2022/10/21 08:39:19;;;;;;;28.70;14.10;;;;;;;8.10;80.31;100659.70;106570;1236;140616;-70
2022/10/21 08:41:56;;;;;;;19.40;11.90;;;;;;;8.19;80.22;100663.66;106611;1230;97661;-73
2022/10/21 08:44:54;;;;;;;28.50;13.40;;;;;;;8.29;80.25;100667.97;106660;1238;97697;-71
2022/10/21 08:47:44;;;;;;;30.20;14.80;;;;;;;8.35;80.17;100673.48;106627;1228;140087;-71
2022/10/21 08:50:22;;;;;;;30.80;13.50;;;;;;;8.42;80.19;100672.36;106754;1238;112593;-72
2022/10/21 08:52:53;;;;;;;28.50;14.30;;;;;;;8.50;80.18;100668.53;108792;1243;139358;-73
2022/10/21 08:55:39;;;;;;;23.90;14.10;;;;;;;8.60;80.23;100665.67;108753;1236;107183;-72
2022/10/21 08:58:05;;;;;;;29.90;15.00;;;;;;;8.70;80.21;100660.68;106567;1236;139198;-71
2022/10/21 09:00:48;;;;;;;31.60;14.40;;;;;;;8.80;80.13;100654.09;106898;1236;99526;-73
2022/10/21 09:03:32;;;;;;;30.80;13.80;;;;;;;8.90;80.15;100653.03;106659;1227;110294;-72
2022/10/21 09:06:08;;;;;;;27.90;14.20;;;;;;;9.00;80.08;100652.64;106777;1240;100419;-72
2022/10/21 09:09:06;;;;;;;24.50;13.20;;;;;;;9.10;80.03;100649.09;106695;1251;110147;-72
2022/10/21 09:12:07;;;;;;;26.80;13.30;;;;;;;9.17;80.08;100645.77;106577;1235;139989;-72
2022/10/21 09:15:06;;;;;;;24.90;13.60;;;;;;;9.28;80.09;100646.09;106636;1236;97829;-72
2022/10/21 09:17:50;;;;;;;34.80;14.60;;;;;;;9.40;80.00;100634.55;106565;1230;139671;-73
2022/10/21 09:20:21;;;;;;;31.70;13.00;;;;;;;9.52;80.05;100625.53;106681;1227;100035;-72
2022/10/21 09:23:16;;;;;;;21.80;12.60;;;;;;;9.64;79.97;100620.05;106665;1233;139535;-74
2022/10/21 09:25:51;;;;;;;27.80;12.10;;;;;;;9.76;79.98;100613.85;106702;1229;97731;-75
2022/10/21 09:28:16;;;;;;;24.70;13.30;;;;;;;9.87;79.94;100618.05;106638;1236;139460;-72
2022/10/21 09:30:43;;;;;;;25.70;12.70;;;;;;;9.99;79.88;100614.48;106668;1236;97618;-72
2022/10/21 09:33:15;;;;;;;27.00;12.60;;;;;;;10.09;79.80;100608.91;106738;1229;97664;-73
2022/10/21 09:35:50;;;;;;;25.30;12.80;;;;;;;10.19;79.79;100603.50;106486;1236;139008;-71
2022/10/21 09:38:24;;;;;;;28.00;13.10;;;;;;;10.29;79.71;100600.80;106659;1236;96329;-74
2022/10/21 09:40:57;;;;;;;23.40;12.60;;;;;;;10.35;79.67;100601.94;106522;1247;139270;-73
2022/10/21 09:43:24;;;;;;;29.00;13.70;;;;;;;10.42;79.56;100592.69;106755;1235;99805;-73
2022/10/21 09:45:49;;;;;;;24.70;12.90;;;;;;;10.48;79.51;100592.42;106650;1236;139477;-72
2022/10/21 09:48:17;;;;;;;28.80;12.60;;;;;;;10.54;79.49;100600.91;106789;1237;97855;-72
2022/10/21 09:50:54;;;;;;;26.70;13.50;;;;;;;10.59;79.37;100609.44;106699;1229;111619;-72
2022/10/21 09:53:26;;;;;;;26.10;13.90;;;;;;;10.66;79.28;100600.92;106701;1237;139485;-72
2022/10/21 09:55:55;;;;;;;;;;;;;;;10.77;79.35;100600.42;106794;1228;107882;-71
2022/10/21 09:58:42;;;;;;;30.50;14.50;;;;;;;10.82;79.16;100606.30;106621;1237;125713;-71
2022/10/21 10:01:14;;;;;;;27.90;14.50;;;;;;;10.93;79.12;100605.98;106735;1238;98343;-72
2022/10/21 10:03:50;;;;;;;29.90;14.00;;;;;;;10.97;78.88;100596.98;106563;1229;140194;-70
2022/10/21 10:06:49;;;;;;;22.90;12.00;;;;;;;11.08;78.80;100586.69;106796;1244;100082;-72
2022/10/21 10:09:29;;;;;;;23.00;12.40;;;;;;;11.23;78.83;100577.92;106677;1230;108107;-71
2022/10/21 10:12:19;;;;;;;25.30;12.80;;;;;;;11.38;78.85;100570.60;106811;1251;97634;-71
2022/10/21 10:14:45;;;;;;;26.20;13.20;;;;;;;11.57;78.88;100566.42;106746;1238;97679;-73
2022/10/21 10:17:24;;;;;;;22.70;12.30;;;;;;;11.72;78.74;100562.34;106649;1237;138824;-72
2022/10/21 10:20:02;;;;;;;28.20;13.10;;;;;;;11.82;78.61;100559.55;106783;1245;99975;-72
2022/10/21 10:22:27;;;;;;;24.20;11.60;;;;;;;11.90;78.52;100551.77;106663;1239;138864;-72
2022/10/21 10:24:52;;;;;;;24.20;12.50;;;;;;;11.98;78.41;100547.21;106736;1241;99118;-72
2022/10/21 10:27:22;;;;;;;23.10;11.30;;;;;;;12.07;78.28;100540.70;106832;1237;97732;-72
2022/10/21 10:29:59;;;;;;;20.10;10.80;;;;;;;12.15;78.21;100530.45;106777;1244;138528;-72
2022/10/21 10:32:30;;;;;;;24.30;12.50;;;;;;;12.22;77.98;100531.69;106759;1237;107962;-72
2022/10/21 10:34:59;;;;;;;19.40;11.40;;;;;;;12.35;77.98;100535.88;106764;1243;139244;-73
2022/10/21 10:37:27;;;;;;;22.00;11.00;;;;;;;12.47;77.93;100545.44;106762;1239;97002;-72
2022/10/21 10:39:56;;;;;;;18.10;11.30;;;;;;;12.52;77.71;100540.83;106793;1244;140438;-72
2022/10/21 10:42:27;;;;;;;21.00;11.40;;;;;;;12.54;77.65;100536.27;106780;1237;99848;-73
2022/10/21 10:44:55;;;;;;;25.90;11.70;;;;;;;12.55;77.46;100536.58;106787;1245;109812;-72
2022/10/21 10:47:28;;;;;;;25.60;12.70;;;;;;;12.60;77.34;100542.71;106778;1251;139205;-72
2022/10/21 10:49:54;;;;;;;40.50;11.70;;;;;;;12.72;77.49;100546.02;106742;1247;97655;-72
2022/10/21 10:52:23;;;;;;;19.70;10.40;;;;;;;12.85;77.42;100548.05;106609;1235;140851;-72
2022/10/21 10:55:11;;;;;;;20.90;10.60;;;;;;;12.97;77.19;100542.16;106808;1234;97648;-73
2022/10/21 10:57:38;;;;;;;24.00;12.20;;;;;;;13.00;77.00;100540.52;106575;1228;139090;-73
2022/10/21 11:00:13;;;;;;;19.60;11.80;;;;;;;13.04;76.81;100539.77;106788;1244;97669;-74
2022/10/21 11:03:00;;;;;;;29.00;11.00;;;;;;;13.10;76.80;100536.21;106675;1247;97745;-73
2022/10/21 11:05:45;;;;;;;23.00;9.80;;;;;;;13.26;76.85;100519.58;106659;1243;139990;-73
2022/10/21 11:08:20;;;;;;;20.70;10.90;;;;;;;13.46;76.75;100516.24;106792;1244;99839;-72
2022/10/21 11:10:56;;;;;;;19.40;9.70;;;;;;;13.61;76.56;100521.51;106629;1244;139875;-72
2022/10/21 11:13:23;;;;;;;24.90;10.10;;;;;;;13.76;76.52;100522.94;106679;1245;97840;-71
2022/10/21 11:15:52;;;;;;;16.50;9.70;;;;;;;13.96;76.43;100515.32;106653;1245;139771;-71